Time;durP1;ratioP1;P1;durP2;ratioP2;P2;SDS_P1;SDS_P2;PMS_P1;PMS_P2;Temp;Humidity;BMP_temperature;BMP_pressure;BME280_temperature;BME280_humidity;BME280_pressure;Samples;Min_cycle;Max_cycle;Signal;HPM_P1;HPM_P2
2021/05/11 00:00:59;;;;;;;1.50;0.87;;;;;;;;;;5074455;28;20811;-85
2021/05/11 00:03:25;;;;;;;4.10;2.10;;;;;;;;;;5073452;28;20460;-86
2021/05/11 00:05:50;;;;;;;3.40;1.40;;;;;;;;;;5055908;28;20474;-86
2021/05/11 00:08:16;;;;;;;2.47;1.80;;;;;;;;;;5071552;28;20913;-86
2021/05/11 00:10:42;;;;;;;6.57;1.53;;;;;;;;;;5074020;28;20464;-87
2021/05/11 00:13:08;;;;;;;2.30;1.60;;;;;;;;;;5058903;28;20430;-87
2021/05/11 00:15:34;;;;;;;2.27;1.60;;;;;;;;;;5056177;28;20421;-86
2021/05/11 00:18:01;;;;;;;2.97;1.67;;;;;;;;;;5056111;28;20818;-87
2021/05/11 00:20:27;;;;;;;2.07;1.30;;;;;;;;;;5073701;28;20537;-86
2021/05/11 00:22:52;;;;;;;2.10;0.80;;;;;;;;;;5056051;28;20516;-87
2021/05/11 00:25:18;;;;;;;3.20;1.03;;;;;;;;;;5055521;28;20509;-85
2021/05/11 00:27:44;;;;;;;4.17;1.13;;;;;;;;;;5055904;28;20422;-85
2021/05/11 00:30:11;;;;;;;2.87;1.40;;;;;;;;;;5055722;28;20567;-85
2021/05/11 00:32:37;;;;;;;4.37;1.20;;;;;;;;;;5073812;28;20505;-85
2021/05/11 00:35:03;;;;;;;2.30;1.40;;;;;;;;;;5055548;28;20409;-85
2021/05/11 00:37:29;;;;;;;1.60;1.10;;;;;;;;;;5055666;28;20405;-85
2021/05/11 00:39:55;;;;;;;2.80;1.20;;;;;;;;;;5055604;28;20776;-85
2021/05/11 00:42:21;;;;;;;1.97;0.73;;;;;;;;;;5055688;28;20412;-85
2021/05/11 00:44:47;;;;;;;3.70;1.33;;;;;;;;;;5055485;28;20475;-85
2021/05/11 00:47:13;;;;;;;2.37;0.87;;;;;;;;;;5073667;28;20405;-85
2021/05/11 00:49:39;;;;;;;2.20;1.27;;;;;;;;;;5055211;28;20428;-86
2021/05/11 00:52:06;;;;;;;2.40;1.37;;;15.10;99.90;;;;;;5073560;28;20504;-86
2021/05/11 00:54:33;;;;;;;6.90;1.23;;;15.30;99.90;;;;;;5052652;28;20975;-86
2021/05/11 00:57:01;;;;;;;3.60;1.60;;;16.00;99.90;;;;;;5055371;28;20445;-85
2021/05/11 00:59:29;;;;;;;4.30;1.80;;;;;;;;;;5073210;28;20428;-85
2021/05/11 01:01:56;;;;;;;1.13;0.80;;;;;;;;;;5074173;28;20449;-85
2021/05/11 01:04:22;;;;;;;5.03;1.20;;;;;;;;;;5055934;28;21137;-86
2021/05/11 01:06:48;;;;;;;4.10;0.60;;;14.90;99.90;;;;;;5056346;28;20995;-85
2021/05/11 01:09:14;;;;;;;1.53;0.80;;;15.40;99.90;;;;;;5056391;28;21064;-86
2021/05/11 01:11:40;;;;;;;1.80;0.83;;;14.90;99.90;;;;;;5074257;28;20412;-86
2021/05/11 01:14:06;;;;;;;1.50;1.33;;;14.80;99.90;;;;;;5074179;28;20434;-85
2021/05/11 01:16:33;;;;;;;5.93;0.90;;;14.80;99.90;;;;;;5074173;28;20502;-85
2021/05/11 01:19:16;;;;;;;3.07;0.90;;;14.80;99.90;;;;;;5073729;28;20424;-85
2021/05/11 01:56:23;;;;;;;3.23;1.30;;;14.70;99.90;;;;;;5073392;28;20170;-85
2021/05/11 02:23:00;;;;;;;5.37;1.77;;;14.40;99.90;;;;;;5073443;28;20439;-88
2021/05/11 02:25:25;;;;;;;4.50;1.00;;;14.40;99.90;;;;;;5073082;28;20421;-87
2021/05/11 02:27:51;;;;;;;2.00;1.23;;;14.40;99.90;;;;;;5072759;28;20193;-88
2021/05/11 02:30:17;;;;;;;2.03;1.27;;;14.30;99.90;;;;;;5072952;28;20184;-86
2021/05/11 02:32:43;;;;;;;3.37;1.20;;;14.30;99.90;;;;;;5054971;28;20170;-87
2021/05/11 02:35:11;;;;;;;2.47;1.10;;;14.30;99.90;;;;;;5054533;28;20423;-86
2021/05/11 02:37:37;;;;;;;1.87;1.10;;;14.30;99.90;;;;;;5072823;28;20444;-86
2021/05/11 02:40:04;;;;;;;4.73;1.40;;;14.30;99.90;;;;;;5072847;28;20506;-86
2021/05/11 02:42:31;;;;;;;1.20;0.60;;;14.30;99.90;;;;;;5054784;28;20266;-86
2021/05/11 02:44:57;;;;;;;2.10;1.00;;;14.30;99.90;;;;;;5072712;28;20503;-86
2021/05/11 02:47:23;;;;;;;1.83;0.67;;;14.30;99.90;;;;;;5054676;28;20420;-87
2021/05/11 02:49:50;;;;;;;2.10;0.47;;;14.30;99.90;;;;;;5072232;28;20423;-86
2021/05/11 02:52:16;;;;;;;1.47;0.47;;;14.30;99.90;;;;;;5072751;28;20282;-86
2021/05/11 02:54:42;;;;;;;3.03;1.40;;;14.30;99.90;;;;;;5072434;28;20507;-86
2021/05/11 02:57:08;;;;;;;2.23;1.43;;;14.30;99.90;;;;;;5054713;28;20180;-85
2021/05/11 02:59:33;;;;;;;1.97;0.63;;;14.40;99.90;;;;;;5054748;28;20848;-86
2021/05/11 03:02:00;;;;;;;1.90;1.50;;;14.40;99.90;;;;;;5072643;28;20412;-86
2021/05/11 03:04:25;;;;;;;5.00;1.93;;;14.40;99.90;;;;;;5072184;28;20676;-86
2021/05/11 03:06:56;;;;;;;1.87;0.90;;;14.40;99.90;;;;;;5054584;28;20450;-86
2021/05/11 03:09:25;;;;;;;2.03;0.83;;;14.30;99.90;;;;;;5072554;28;20177;-86
2021/05/11 03:11:52;;;;;;;2.83;2.07;;;14.20;99.90;;;;;;5072443;28;20419;-86
2021/05/11 03:14:18;;;;;;;4.07;1.30;;;14.20;99.90;;;;;;5054491;28;20477;-86
2021/05/11 03:16:44;;;;;;;2.37;1.70;;;14.10;99.90;;;;;;5072421;28;20903;-86
2021/05/11 03:19:09;;;;;;;4.43;1.10;;;14.00;99.90;;;;;;5054041;28;20181;-85
2021/05/11 03:21:35;;;;;;;6.77;1.83;;;14.00;99.90;;;;;;5054188;28;20424;-86
2021/05/11 03:24:01;;;;;;;7.57;1.53;;;14.00;99.90;;;;;;5054216;28;20239;-85
2021/05/11 03:26:27;;;;;;;4.00;1.70;;;14.00;99.90;;;;;;5072343;28;20168;-86
2021/05/11 03:28:52;;;;;;;2.80;1.57;;;14.00;99.90;;;;;;5054025;28;20489;-87
2021/05/11 03:31:18;;;;;;;5.60;1.13;;;14.10;99.90;;;;;;5054319;28;20230;-87
2021/05/11 03:33:43;;;;;;;3.50;1.83;;;14.10;99.90;;;;;;5054077;28;20272;-87
2021/05/11 03:36:09;;;;;;;2.20;1.63;;;14.20;99.90;;;;;;5072124;28;20223;-87
2021/05/11 03:38:35;;;;;;;4.67;2.87;;;14.20;99.90;;;;;;5054160;28;20185;-86
2021/05/11 03:41:01;;;;;;;6.03;1.60;;;14.20;99.90;;;;;;5054192;28;20212;-86
2021/05/11 03:43:47;;;;;;;3.37;2.10;;;14.20;99.90;;;;;;5053948;28;20688;-87
2021/05/11 03:46:12;;;;;;;2.27;1.50;;;14.10;99.90;;;;;;5072144;28;20171;-86
2021/05/11 03:48:38;;;;;;;2.97;1.53;;;14.00;99.90;;;;;;5053746;28;20856;-86
2021/05/11 03:51:06;;;;;;;2.63;1.10;;;13.90;99.90;;;;;;5054131;28;20185;-86
2021/05/11 03:53:33;;;;;;;2.77;1.73;;;13.90;99.90;;;;;;5050242;28;20221;-87
2021/05/11 03:55:59;;;;;;;5.20;1.63;;;13.80;99.90;;;;;;5052069;28;20410;-86
2021/05/11 03:58:26;;;;;;;4.83;2.43;;;13.80;99.90;;;;;;5050649;28;20440;-85
2021/05/11 04:00:51;;;;;;;5.50;2.20;;;13.70;99.90;;;;;;5051627;28;20473;-85
2021/05/11 04:03:18;;;;;;;1.83;1.60;;;13.70;99.90;;;;;;5055511;28;20815;-85
2021/05/11 04:05:45;;;;;;;4.00;2.83;;;13.70;99.90;;;;;;5053980;28;20257;-86
2021/05/11 04:08:19;;;;;;;4.43;2.50;;;13.80;99.90;;;;;;5055461;28;20404;-86
2021/05/11 04:10:48;;;;;;;6.43;3.97;;;13.70;99.90;;;;;;5054049;28;20429;-86
2021/05/11 04:13:33;;;;;;;5.10;2.63;;;13.70;99.90;;;;;;5054218;28;20473;-85
2021/05/11 04:18:54;;;;;;;4.20;2.20;;;13.80;99.90;;;;;;5041569;28;20420;-86
2021/05/11 04:21:22;;;;;;;6.57;3.03;;;13.80;99.90;;;;;;5055278;28;20423;-86
2021/05/11 04:23:50;;;;;;;4.97;2.50;;;13.80;99.90;;;;;;5055044;28;20995;-86
2021/05/11 04:26:17;;;;;;;4.40;1.70;;;13.80;99.90;;;;;;5055354;28;20765;-87
2021/05/11 04:28:45;;;;;;;5.23;1.77;;;13.80;99.90;;;;;;5054328;28;20981;-87
2021/05/11 04:31:11;;;;;;;3.70;1.80;;;13.80;99.90;;;;;;5054662;28;20457;-86
2021/05/11 04:33:36;;;;;;;3.23;1.50;;;13.80;99.90;;;;;;5054649;28;21000;-86
2021/05/11 04:36:03;;;;;;;9.20;1.17;;;13.80;99.90;;;;;;5053714;28;20177;-86
2021/05/11 04:38:28;;;;;;;4.90;1.30;;;13.80;99.90;;;;;;5054727;28;20181;-86
2021/05/11 04:40:54;;;;;;;5.23;1.80;;;13.80;99.90;;;;;;5053644;28;20466;-86
2021/05/11 04:43:24;;;;;;;4.50;1.80;;;13.80;99.90;;;;;;5054773;28;20742;-86
2021/05/11 04:45:51;;;;;;;4.10;1.60;;;13.80;99.90;;;;;;5054728;28;20514;-86
2021/05/11 04:48:17;;;;;;;3.73;1.60;;;13.80;99.90;;;;;;5057698;28;20453;-86
2021/05/11 04:50:43;;;;;;;3.33;1.27;;;13.80;99.90;;;;;;5060749;28;20416;-85
2021/05/11 04:53:08;;;;;;;2.33;1.03;;;13.80;99.90;;;;;;5061979;28;21041;-85
2021/05/11 04:55:34;;;;;;;2.50;1.17;;;13.70;99.90;;;;;;5065303;28;20173;-85
2021/05/11 04:58:00;;;;;;;3.27;1.13;;;13.80;99.90;;;;;;5061161;28;20596;-84
2021/05/11 05:00:26;;;;;;;2.33;1.17;;;13.80;99.90;;;;;;5062476;28;20451;-86
2021/05/11 05:02:53;;;;;;;3.77;1.47;;;13.80;99.90;;;;;;5062280;28;20177;-85
2021/05/11 05:05:19;;;;;;;1.77;1.33;;;13.80;99.90;;;;;;5061908;28;20181;-85
2021/05/11 05:07:46;;;;;;;3.57;0.73;;;13.70;99.90;;;;;;5063765;28;20411;-86
2021/05/11 05:10:12;;;;;;;3.63;1.17;;;13.80;99.90;;;;;;5063719;28;20416;-85
2021/05/11 05:12:38;;;;;;;3.87;0.80;;;13.80;99.90;;;;;;5060709;28;20424;-86
2021/05/11 05:15:05;;;;;;;4.13;1.07;;;13.80;99.90;;;;;;5063747;28;20993;-86
2021/05/11 05:17:31;;;;;;;5.20;1.30;;;13.80;99.90;;;;;;5063386;28;20257;-86
2021/05/11 05:19:57;;;;;;;5.00;1.23;;;13.80;99.90;;;;;;5061634;28;20516;-85
2021/05/11 05:22:23;;;;;;;4.47;1.20;;;13.80;99.90;;;;;;5063967;28;20169;-85
2021/05/11 05:24:52;;;;;;;5.83;1.70;;;13.80;99.90;;;;;;5062709;28;20202;-86
2021/05/11 05:27:21;;;;;;;1.60;0.60;;;13.70;99.90;;;;;;5060187;28;20419;-84
2021/05/11 05:29:47;;;;;;;4.23;1.07;;;13.80;99.90;;;;;;5062566;28;20962;-85
2021/05/11 05:32:13;;;;;;;5.27;1.50;;;13.70;99.90;;;;;;5060306;28;20413;-85
2021/05/11 05:34:41;;;;;;;3.47;1.03;;;13.80;99.90;;;;;;5059893;28;20577;-84
2021/05/11 05:37:07;;;;;;;2.57;1.23;;;13.80;99.90;;;;;;5062873;28;20502;-85
2021/05/11 05:39:38;;;;;;;6.60;1.93;;;13.80;99.90;;;;;;5062994;28;20780;-84
2021/05/11 05:42:04;;;;;;;4.50;1.63;;;13.80;99.90;;;;;;5059144;28;20494;-85
2021/05/11 05:44:31;;;;;;;2.10;0.87;;;13.70;99.90;;;;;;5062830;28;20469;-85
2021/05/11 05:46:56;;;;;;;3.10;1.00;;;13.70;99.90;;;;;;5063357;28;21735;-85
2021/05/11 05:49:24;;;;;;;4.40;1.47;;;13.70;99.90;;;;;;5058267;28;20428;-85
2021/05/11 05:51:51;;;;;;;2.20;0.53;;;13.60;99.90;;;;;;5062266;28;20570;-84
2021/05/11 05:54:17;;;;;;;2.57;0.73;;;13.70;99.90;;;;;;5079050;28;20486;-85
2021/05/11 05:56:42;;;;;;;3.83;1.03;;;13.70;99.90;;;;;;5057296;28;20454;-84
2021/05/11 05:59:08;;;;;;;3.27;0.67;;;13.80;99.90;;;;;;5082202;28;20419;-85
2021/05/11 06:01:34;;;;;;;3.57;1.67;;;13.60;99.90;;;;;;5081724;28;20561;-84
2021/05/11 06:04:13;;;;;;;3.23;1.10;;;13.70;99.90;;;;;;5082703;28;20231;-84
2021/05/11 06:06:40;;;;;;;2.50;0.63;;;13.70;99.90;;;;;;5075110;28;20453;-85
2021/05/11 06:09:16;;;;;;;1.97;1.20;;;13.70;99.90;;;;;;5072705;28;20779;-84
2021/05/11 06:11:47;;;;;;;2.40;1.27;;;13.80;99.90;;;;;;5071276;28;20406;-84
2021/05/11 06:15:00;;;;;;;2.20;1.07;;;13.80;99.90;;;;;;5072619;28;20485;-84
2021/05/11 06:17:18;;;;;;;5.63;1.47;;;13.70;99.90;;;;;;5069173;28;20830;-84
2021/05/11 06:19:46;;;;;;;4.13;1.10;;;13.70;99.90;;;;;;5072585;28;20422;-84
2021/05/11 06:22:12;;;;;;;6.80;1.50;;;13.70;99.90;;;;;;5072673;28;20402;-84
2021/05/11 06:24:38;;;;;;;3.97;1.87;;;13.80;99.90;;;;;;5071841;28;20582;-84
2021/05/11 06:27:04;;;;;;;7.20;1.43;;;13.80;99.90;;;;;;5072399;28;20406;-85
2021/05/11 06:29:33;;;;;;;3.10;2.00;;;13.70;99.90;;;;;;5054401;28;20420;-86
2021/05/11 06:31:58;;;;;;;4.93;1.70;;;13.80;99.90;;;;;;5072705;28;20446;-85
2021/05/11 06:34:24;;;;;;;4.07;1.47;;;13.80;99.90;;;;;;5072461;28;20847;-85
2021/05/11 06:36:49;;;;;;;5.77;2.00;;;13.80;99.90;;;;;;5054860;28;20205;-86
2021/05/11 06:39:16;;;;;;;4.40;1.50;;;13.80;99.90;;;;;;5072743;28;20259;-85
2021/05/11 06:41:46;;;;;;;5.03;2.37;;;13.80;99.90;;;;;;5072680;28;20231;-85
2021/05/11 06:44:43;;;;;;;2.03;1.27;;;13.80;99.90;;;;;;5072642;28;20473;-85
2021/05/11 06:47:25;;;;;;;6.07;1.70;;;13.90;99.90;;;;;;5071828;28;20492;-85
2021/05/11 06:50:12;;;;;;;6.10;1.93;;;13.80;99.90;;;;;;5072080;28;20434;-85
2021/05/11 06:52:46;;;;;;;3.70;1.50;;;13.80;99.90;;;;;;5072170;28;20821;-85
2021/05/11 06:55:15;;;;;;;8.43;2.03;;;13.90;99.90;;;;;;5072412;28;20425;-86
2021/05/11 06:57:40;;;;;;;3.83;3.43;;;13.90;99.90;;;;;;5053743;28;20458;-85
2021/05/11 07:00:07;;;;;;;7.17;1.73;;;13.80;99.90;;;;;;5054372;28;20451;-85
2021/05/11 07:02:32;;;;;;;7.33;2.37;;;13.80;99.90;;;;;;5072432;28;20173;-85
2021/05/11 07:04:58;;;;;;;8.53;2.03;;;13.80;99.90;;;;;;5054153;28;20996;-85
2021/05/11 07:07:24;;;;;;;6.67;1.17;;;13.80;99.90;;;;;;5054506;28;20180;-85
2021/05/11 07:10:01;;;;;;;2.17;1.10;;;13.90;99.90;;;;;;5054484;28;20188;-85
2021/05/11 07:15:11;;;;;;;3.30;1.23;;;13.80;99.90;;;;;;5072741;28;20763;-86
2021/05/11 07:17:37;;;;;;;4.20;1.77;;;13.90;99.90;;;;;;5080173;28;20414;-85
2021/05/11 07:20:03;;;;;;;4.43;1.43;;;13.80;99.90;;;;;;5081434;28;20480;-86
2021/05/11 07:22:29;;;;;;;1.97;0.60;;;13.80;99.90;;;;;;5086772;28;20172;-86
2021/05/11 07:24:56;;;;;;;3.53;1.13;;;13.80;99.90;;;;;;5092589;28;20470;-86
2021/05/11 07:29:57;;;;;;;4.53;1.10;;;13.80;99.90;;;;;;5092528;28;20930;-86
2021/05/11 07:32:23;;;;;;;2.73;1.13;;;13.80;99.90;;;;;;5074334;28;20489;-86
2021/05/11 07:34:53;;;;;;;4.47;1.03;;;13.70;99.90;;;;;;5073976;28;20421;-86
2021/05/11 07:37:18;;;;;;;6.80;1.70;;;13.70;99.90;;;;;;5096391;28;20402;-85
2021/05/11 07:39:45;;;;;;;2.53;0.73;;;13.70;99.90;;;;;;5096346;28;20414;-86
2021/05/11 07:42:11;;;;;;;2.80;0.63;;;13.70;99.90;;;;;;5096308;28;20206;-87
2021/05/11 07:44:41;;;;;;;2.63;1.23;;;13.70;99.90;;;;;;5096175;28;20469;-86
2021/05/11 07:47:31;;;;;;;2.07;0.97;;;13.70;99.90;;;;;;5060900;28;20424;-86
2021/05/11 08:04:26;;;;;;;1.63;0.90;;;13.90;99.90;;;;;;5071882;28;20481;-87
2021/05/11 08:17:39;;;;;;;3.10;0.77;;;13.70;99.90;;;;;;5092205;28;20801;-86
2021/05/11 08:28:08;;;;;;;1.80;0.60;;;14.00;99.90;;;;;;5074840;28;20955;-86
2021/05/11 08:30:34;;;;;;;3.83;0.60;;;14.10;99.90;;;;;;5057012;28;20800;-86
2021/05/11 08:33:00;;;;;;;3.53;0.63;;;14.30;99.90;;;;;;5074290;28;20411;-86
2021/05/11 08:35:25;;;;;;;1.73;0.77;;;14.60;99.90;;;;;;5075197;28;20456;-87
2021/05/11 08:37:51;;;;;;;1.23;0.40;;;15.10;99.90;;;;;;5054708;28;20179;-84
2021/05/11 08:40:17;;;;;;;2.80;0.33;;;15.50;99.90;;;;;;5074003;28;20627;-84
2021/05/11 08:42:43;;;;;;;1.63;0.60;;;15.70;99.90;;;;;;5076690;28;20190;-83
2021/05/11 08:45:11;;;;;;;4.30;0.83;;;15.80;99.90;;;;;;5054309;28;20564;-84
2021/05/11 08:47:48;;;;;;;4.93;0.63;;;15.70;99.90;;;;;;5053765;28;20164;-82
2021/05/11 08:50:26;;;;;;;3.13;1.27;;;15.60;99.90;;;;;;5073632;28;20797;-86
2021/05/11 09:25:25;;;;;;;2.30;0.50;;;15.50;99.90;;;;;;4994498;28;20481;-85
2021/05/11 10:48:30;;;;;;;2.97;0.80;;;18.90;1.00;;;;;;5012936;28;20431;-87
2021/05/11 10:51:00;;;;;;;3.37;0.77;;;19.30;1.00;;;;;;5013453;28;20439;-87
2021/05/11 10:53:39;;;;;;;1.37;0.40;;;;;;;;;;5014183;28;20462;-85
2021/05/11 10:56:29;;;;;;;5.13;0.50;;;;;;;;;;5013321;28;20407;-88
2021/05/11 10:59:08;;;;;;;2.53;0.73;;;;;;;;;;5019868;28;20424;-84
2021/05/11 11:01:36;;;;;;;2.00;0.40;;;;;;;;;;4993172;28;20416;-87
2021/05/11 11:04:16;;;;;;;1.03;0.50;;;;;;;;;;5012623;28;20476;-86
2021/05/11 11:06:57;;;;;;;1.53;0.43;;;;;;;;;;5006454;28;20405;-86
2021/05/11 11:09:24;;;;;;;1.20;0.30;;;;;;;;;;5013364;28;20760;-86
2021/05/11 11:11:51;;;;;;;1.33;0.20;;;;;;;;;;5017133;28;20402;-89
2021/05/11 11:14:17;;;;;;;2.70;0.57;;;24.50;99.90;;;;;;5017211;28;20495;-89
2021/05/11 11:16:42;;;;;;;2.80;0.50;;;24.60;99.90;;;;;;5032496;28;20435;-87
2021/05/11 11:19:12;;;;;;;3.23;0.50;;;24.30;1.00;;;;;;5016861;28;20253;-86
2021/05/11 11:24:32;;;;;;;1.00;0.30;;;;;;;;;;5019870;28;20478;-88
2021/05/11 11:26:59;;;;;;;3.50;0.53;;;;;;;;;;5017000;28;20506;-86
2021/05/11 11:29:25;;;;;;;2.43;0.70;;;;;;;;;;5016761;28;20416;-87
2021/05/11 11:31:52;;;;;;;2.40;0.47;;;24.10;1.00;;;;;;5016974;28;20421;-87
2021/05/11 11:34:22;;;;;;;1.93;0.60;;;24.20;1.00;;;;;;5016420;28;20768;-83
2021/05/11 11:37:01;;;;;;;1.23;0.43;;;24.90;1.00;;;;;;5017074;28;20413;-86
2021/05/11 11:39:31;;;;;;;1.90;0.37;;;25.10;1.00;;;;;;5015509;28;20516;-85
2021/05/11 11:42:07;;;;;;;5.17;0.50;;;24.40;1.00;;;;;;5016797;28;20418;-84
2021/05/11 11:44:37;;;;;;;2.57;0.50;;;23.60;1.00;;;;;;5010672;28;20476;-85
2021/05/11 11:47:05;;;;;;;1.50;0.33;;;23.00;1.00;;;;;;5006042;28;20422;-84
2021/05/11 11:49:33;;;;;;;1.10;0.40;;;22.60;99.90;;;;;;5005972;28;20516;-85
2021/05/11 11:52:19;;;;;;;2.70;0.90;;;22.30;98.70;;;;;;5001612;28;20433;-86
2021/05/11 12:00:14;;;;;;;1.93;0.37;;;21.00;99.90;;;;;;4996792;28;20910;-85
2021/05/11 12:03:05;;;;;;;4.20;0.50;;;20.90;1.00;;;;;;4996390;28;20456;-86
2021/05/11 12:05:41;;;;;;;1.90;0.73;;;20.90;1.00;;;;;;5006414;28;20445;-83
2021/05/11 12:08:35;;;;;;;2.00;0.30;;;20.90;1.00;;;;;;5015257;28;20565;-84
2021/05/11 12:11:07;;;;;;;1.90;0.30;;;20.90;1.00;;;;;;5016105;28;20419;-85
2021/05/11 12:13:42;;;;;;;2.60;0.60;;;21.00;99.90;;;;;;5016121;28;20412;-84
2021/05/11 12:16:18;;;;;;;0.97;0.30;;;21.10;1.00;;;;;;5016038;28;20485;-83
2021/05/11 12:19:02;;;;;;;2.30;0.50;;;21.00;99.90;;;;;;5015635;28;20931;-85
2021/05/11 12:21:28;;;;;;;1.80;0.50;;;20.70;1.00;;;;;;5015236;28;20814;-86
2021/05/11 12:24:10;;;;;;;2.40;0.70;;;20.60;1.00;;;;;;5015871;28;20469;-86
2021/05/11 12:26:43;;;;;;;2.27;0.43;;;20.60;22.80;;;;;;5015744;28;20479;-85
2021/05/11 12:29:18;;;;;;;3.13;0.50;;;20.60;99.90;;;;;;5015779;28;20404;-86
2021/05/11 12:31:46;;;;;;;4.03;0.30;;;20.60;99.90;;;;;;5015745;28;20504;-85
2021/05/11 12:34:14;;;;;;;2.23;0.57;;;20.60;99.90;;;;;;5015334;28;20414;-85
2021/05/11 12:36:51;;;;;;;3.20;0.50;;;20.50;1.00;;;;;;5015596;28;20428;-85
2021/05/11 12:42:30;;;;;;;3.13;0.83;;;20.40;99.90;;;;;;4974223;28;20442;-86
2021/05/11 12:45:07;;;;;;;2.83;0.70;;;20.10;99.90;;;;;;4974686;28;20480;-88
2021/05/11 12:47:47;;;;;;;2.40;0.87;;;20.10;99.90;;;;;;4996407;28;20424;-83
2021/05/11 12:50:23;;;;;;;2.23;0.30;;;20.30;99.90;;;;;;5015553;28;20420;-85
2021/05/11 12:52:50;;;;;;;1.40;0.30;;;20.60;99.90;;;;;;5015590;28;20504;-89
2021/05/11 12:55:48;;;;;;;3.93;0.67;;;20.80;99.90;;;;;;5015875;28;20985;-89
2021/05/11 12:58:42;;;;;;;1.87;0.60;;;21.00;99.90;;;;;;5020052;28;20457;-89
2021/05/11 13:01:29;;;;;;;1.70;0.40;;;21.20;99.90;;;;;;5034590;28;20485;-88
2021/05/11 13:04:33;;;;;;;5.60;0.37;;;21.20;1.00;;;;;;5031176;28;20998;-87
2021/05/11 13:20:42;;;;;;;1.20;0.40;;;21.10;1.00;;;;;;5014887;28;20774;-85
2021/05/11 13:25:42;;;;;;;2.00;0.50;;;20.70;99.90;;;;;;5014793;28;20441;-85
2021/05/11 13:33:26;;;;;;;4.67;0.63;;;20.40;99.90;;;;;;5014170;28;20435;-86
2021/05/11 13:35:53;;;;;;;1.30;0.50;;;20.30;99.90;;;;;;5013383;28;20456;-85
2021/05/11 13:38:20;;;;;;;1.40;0.70;;;20.30;1.00;;;;;;5014627;28;20409;-86
2021/05/11 13:40:46;;;;;;;2.83;0.80;;;20.30;1.00;;;;;;5000780;28;20426;-83
2021/05/11 13:43:11;;;;;;;2.00;0.50;;;20.30;1.00;;;;;;4996102;28;20412;-83
2021/05/11 13:45:37;;;;;;;0.60;0.30;;;20.30;1.00;;;;;;4996231;28;20173;-82
2021/05/11 13:48:05;;;;;;;3.40;0.40;;;20.20;1.00;;;;;;4996199;28;20174;-84
2021/05/11 13:53:06;;;;;;;3.47;0.77;;;20.30;1.00;;;;;;4994672;28;20458;-82
2021/05/11 13:55:43;;;;;;;2.83;0.50;;;20.20;1.00;;;;;;4994675;28;20413;-83
2021/05/11 14:03:37;;;;;;;2.07;0.60;;;20.30;1.00;;;;;;5013954;28;20964;-85
2021/05/11 14:06:03;;;;;;;2.20;0.40;;;20.30;1.00;;;;;;5014540;28;20469;-87
2021/05/11 14:08:29;;;;;;;4.50;1.13;;;20.30;1.00;;;;;;5014369;28;20178;-85
2021/05/11 14:10:54;;;;;;;2.90;0.87;;;20.20;1.00;;;;;;5005934;28;20183;-84
2021/05/11 14:13:20;;;;;;;2.03;0.63;;;20.20;1.00;;;;;;5000646;28;20663;-84
2021/05/11 14:15:45;;;;;;;3.27;1.00;;;20.20;1.00;;;;;;4997257;28;20172;-84
2021/05/11 14:18:11;;;;;;;2.50;0.77;;;20.20;1.00;;;;;;4997552;28;20209;-83
2021/05/11 14:20:37;;;;;;;2.80;0.87;;;20.30;1.00;;;;;;5014013;28;20174;-83
2021/05/11 14:23:02;;;;;;;2.80;0.77;;;20.20;1.00;;;;;;5013915;28;20649;-82
2021/05/11 14:25:28;;;;;;;3.90;0.40;;;20.20;1.00;;;;;;5013857;28;20227;-84
2021/05/11 14:27:53;;;;;;;2.60;0.97;;;20.20;1.00;;;;;;5013912;28;20592;-85
2021/05/11 14:30:19;;;;;;;1.57;1.30;;;20.10;1.00;;;;;;5013726;28;20225;-82
2021/05/11 14:32:45;;;;;;;2.50;0.40;;;20.10;1.00;;;;;;5013569;28;20178;-85
2021/05/11 14:35:11;;;;;;;5.70;1.13;;;20.00;1.00;;;;;;5014040;28;20771;-83
2021/05/11 14:37:36;;;;;;;1.70;0.40;;;19.90;1.00;;;;;;5013816;28;20173;-83
2021/05/11 14:40:03;;;;;;;2.07;0.67;;;19.90;1.00;;;;;;5013845;28;20174;-84
2021/05/11 14:42:29;;;;;;;1.43;0.40;;;19.80;1.00;;;;;;5014182;28;20236;-85
2021/05/11 14:44:54;;;;;;;1.60;0.50;;;19.70;1.00;;;;;;5013283;28;20464;-84
2021/05/11 14:47:20;;;;;;;4.30;0.70;;;19.60;1.00;;;;;;5013162;28;20177;-86
2021/05/11 14:49:46;;;;;;;2.70;0.80;;;19.50;1.00;;;;;;5008380;28;20177;-85
2021/05/11 14:52:13;;;;;;;2.50;0.77;;;19.40;1.00;;;;;;5013627;28;20211;-83
2021/05/11 14:54:40;;;;;;;4.43;0.80;;;19.40;1.00;;;;;;5013492;28;20666;-84
2021/05/11 14:57:07;;;;;;;6.57;0.83;;;19.50;1.00;;;;;;5012973;28;20481;-82
2021/05/11 14:59:32;;;;;;;7.53;2.20;;;19.50;1.00;;;;;;5013522;28;20423;-83
2021/05/11 15:01:58;;;;;;;3.70;0.93;;;19.50;1.00;;;;;;5010287;28;20693;-84
2021/05/11 15:04:23;;;;;;;2.50;0.80;;;19.60;1.00;;;;;;5020062;28;20208;-82
2021/05/11 15:06:49;;;;;;;3.47;1.00;;;19.70;1.00;;;;;;5004813;28;20235;-83
2021/05/11 15:09:14;;;;;;;2.20;0.70;;;19.70;1.00;;;;;;5003830;28;20176;-82
2021/05/11 15:11:40;;;;;;;1.97;0.83;;;19.80;1.00;;;;;;5003304;28;20181;-85
2021/05/11 15:14:06;;;;;;;2.10;0.70;;;19.90;1.00;;;;;;5006258;28;20196;-83
2021/05/11 15:16:37;;;;;;;2.70;0.70;;;20.00;1.00;;;;;;5006079;28;20189;-86
2021/05/11 15:19:04;;;;;;;1.20;0.77;;;20.10;1.00;;;;;;4994268;28;20224;-90
2021/05/11 15:21:29;;;;;;;3.70;1.23;;;20.10;1.00;;;;;;4994094;28;20500;-83
2021/05/11 15:23:55;;;;;;;6.13;1.07;;;20.00;1.00;;;;;;4994079;28;20548;-87
2021/05/11 15:26:22;;;;;;;2.07;0.77;;;19.90;1.00;;;;;;4994157;28;20193;-87
2021/05/11 15:28:48;;;;;;;4.60;0.80;;;19.80;1.00;;;;;;4993061;28;20225;-84
2021/05/11 15:31:14;;;;;;;4.00;1.07;;;19.80;1.00;;;;;;4992881;28;20473;-83
2021/05/11 15:33:39;;;;;;;4.57;1.00;;;19.80;1.00;;;;;;4991020;28;20607;-85
2021/05/11 15:36:06;;;;;;;4.47;0.97;;;19.60;1.00;;;;;;4992243;28;20170;-83
2021/05/11 15:38:31;;;;;;;2.73;0.90;;;19.60;1.00;;;;;;5007319;28;20551;-82
2021/05/11 15:40:58;;;;;;;3.90;0.50;;;19.60;1.00;;;;;;4992222;28;20418;-82
2021/05/11 15:43:24;;;;;;;3.03;0.73;;;19.50;1.00;;;;;;4992283;28;20181;-83
2021/05/11 15:45:50;;;;;;;4.43;0.80;;;19.40;1.00;;;;;;4991834;28;20424;-82
2021/05/11 15:48:16;;;;;;;2.83;0.60;;;19.40;1.00;;;;;;4995534;28;20420;-83
2021/05/11 15:50:44;;;;;;;1.90;0.77;;;19.40;1.00;;;;;;4998557;28;20209;-82
2021/05/11 15:53:12;;;;;;;2.13;0.70;;;19.30;1.00;;;;;;4992166;28;20467;-84
2021/05/11 15:55:40;;;;;;;1.90;0.87;;;19.30;1.00;;;;;;4998137;28;20440;-81
2021/05/11 15:58:07;;;;;;;2.10;0.80;;;19.00;1.00;;;;;;4987738;28;20432;-83
2021/05/11 16:00:35;;;;;;;3.43;0.57;;;18.90;1.00;;;;;;4996929;28;20423;-82
2021/05/11 16:03:03;;;;;;;2.43;0.97;;;18.80;1.00;;;;;;4996477;28;20921;-83
2021/05/11 16:05:30;;;;;;;2.03;0.70;;;18.90;1.00;;;;;;4997013;28;20526;-83
2021/05/11 16:07:56;;;;;;;3.17;1.10;;;18.80;1.00;;;;;;4995591;28;20423;-83
2021/05/11 16:10:21;;;;;;;3.60;0.63;;;18.80;1.90;;;;;;4996652;28;20429;-82
2021/05/11 16:12:47;;;;;;;2.40;1.53;;;18.90;1.00;;;;;;4995687;28;20178;-82
2021/05/11 16:15:18;;;;;;;5.20;0.50;;;18.90;2.20;;;;;;5003927;28;20177;-85
2021/05/11 16:17:44;;;;;;;2.80;0.53;;;19.00;1.00;;;;;;5001891;28;20205;-82
2021/05/11 16:20:11;;;;;;;1.50;0.73;;;19.00;1.00;;;;;;4996114;28;20452;-82
2021/05/11 16:22:37;;;;;;;4.93;0.70;;;18.90;1.00;;;;;;4980724;28;20201;-85
2021/05/11 16:25:04;;;;;;;3.37;0.40;;;;;;;;;;4982634;28;20475;-82
2021/05/11 16:27:31;;;;;;;3.03;0.80;;;;;;;;;;4986951;28;20788;-83
2021/05/11 16:29:57;;;;;;;4.57;0.97;;;;;;;;;;4978987;28;20425;-83
2021/05/11 16:32:23;;;;;;;3.97;0.67;;;;;;;;;;4994663;28;20415;-82
2021/05/11 16:34:49;;;;;;;1.63;0.40;;;;;;;;;;4996043;28;20417;-82
2021/05/11 16:37:15;;;;;;;4.20;0.63;;;;;;;;;;4979069;28;20820;-81
2021/05/11 16:39:41;;;;;;;3.03;0.93;;;;;;;;;;4980671;28;20484;-84
2021/05/11 16:42:07;;;;;;;1.27;0.40;;;;;;;;;;4998494;28;20752;-81
2021/05/11 16:44:34;;;;;;;1.60;0.60;;;;;;;;;;4995814;28;20466;-82
2021/05/11 16:47:00;;;;;;;2.90;0.50;;;;;;;;;;4994190;28;20796;-81
2021/05/11 16:49:26;;;;;;;4.70;0.77;;;;;;;;;;4995623;28;20915;-82
2021/05/11 16:51:52;;;;;;;2.80;0.73;;;;;;;;;;4995649;28;20412;-82
2021/05/11 16:54:18;;;;;;;2.90;0.70;;;;;;;;;;4997928;28;20466;-81
2021/05/11 16:56:45;;;;;;;4.00;0.60;;;;;;;;;;5012422;28;20415;-84
2021/05/11 16:59:11;;;;;;;2.20;0.60;;;;;;;;;;4999021;28;20519;-84
2021/05/11 17:01:37;;;;;;;3.73;0.50;;;;;;;;;;5013559;28;20752;-83
2021/05/11 17:04:03;;;;;;;3.63;0.60;;;;;;;;;;4991981;28;20820;-83
2021/05/11 17:06:30;;;;;;;5.10;0.40;;;;;;;;;;4992956;28;20407;-84
2021/05/11 17:08:57;;;;;;;2.50;0.60;;;;;;;;;;4995294;28;20509;-84
2021/05/11 17:11:23;;;;;;;1.67;0.40;;;;;;;;;;4992727;28;20404;-85
2021/05/11 17:13:49;;;;;;;1.33;0.50;;;;;;;;;;4994927;28;20408;-83
2021/05/11 17:16:15;;;;;;;1.27;0.20;;;;;;;;;;4994881;28;20494;-83
2021/05/11 17:18:42;;;;;;;1.80;0.53;;;;;;;;;;4992793;28;20506;-83
2021/05/11 17:21:08;;;;;;;4.63;0.53;;;;;;;;;;4992737;28;20414;-85
2021/05/11 17:23:34;;;;;;;1.67;0.47;;;;;;;;;;4992533;28;20847;-84
2021/05/11 17:26:00;;;;;;;2.07;0.43;;;;;;;;;;4992739;28;20430;-85
2021/05/11 17:28:31;;;;;;;0.93;0.70;;;;;;;;;;5007916;28;20510;-85
2021/05/11 17:30:58;;;;;;;2.20;0.60;;;17.30;27.10;;;;;;4992635;28;20447;-83